Time;durP1;ratioP1;P1;durP2;ratioP2;P2;SDS_P1;SDS_P2;PMS_P1;PMS_P2;Temp;Humidity;BMP_temperature;BMP_pressure;BME280_temperature;BME280_humidity;BME280_pressure;Samples;Min_cycle;Max_cycle;Signal;HPM_P1;HPM_P2
2023/03/14 00:00:16;;;;;;;1.48;1.00;;;;;;;;;;5125997;27;20033;-42
2023/03/14 00:02:43;;;;;;;1.00;0.80;;;;;;;;;;5126885;27;20106;-41
2023/03/14 00:05:09;;;;;;;1.38;0.70;;;;;;;;;;5125997;27;20428;-41
2023/03/14 00:07:37;;;;;;;1.27;1.02;;;;;;;;;;5126443;27;20071;-41
2023/03/14 00:10:05;;;;;;;1.52;1.40;;;;;;;;;;5125971;27;20027;-41
2023/03/14 00:12:31;;;;;;;2.60;1.88;;;;;;;;;;5125963;27;20023;-41
2023/03/14 00:14:59;;;;;;;3.45;1.55;;;;;;;;;;5126264;28;20042;-41
2023/03/14 00:17:24;;;;;;;3.85;2.08;;;;;;;;;;5126143;28;20060;-40
2023/03/14 00:19:53;;;;;;;2.85;1.70;;;;;;;;;;5125792;28;20106;-40
2023/03/14 00:22:21;;;;;;;2.10;1.52;;;;;;;;;;5126194;28;20019;-41
2023/03/14 00:24:47;;;;;;;2.42;1.45;;;;;;;;;;5126002;28;20038;-41
2023/03/14 00:27:14;;;;;;;2.40;1.50;;;;;;;;;;5126855;27;20360;-41
2023/03/14 00:29:40;;;;;;;1.10;0.95;;;;;;;;;;5126318;27;20118;-41
2023/03/14 00:32:06;;;;;;;1.08;0.98;;;;;;;;;;5125861;28;20507;-41
2023/03/14 00:34:33;;;;;;;0.82;0.80;;;;;;;;;;5125887;28;20023;-40
2023/03/14 00:36:59;;;;;;;0.80;0.80;;;;;;;;;;5126186;27;20023;-40
2023/03/14 00:39:25;;;;;;;0.60;0.60;;;;;;;;;;5125673;27;20130;-40
2023/03/14 00:41:51;;;;;;;1.10;0.70;;;;;;;;;;5124395;28;20031;-40
2023/03/14 00:44:17;;;;;;;0.98;0.70;;;;;;;;;;5124090;28;20056;-40
2023/03/14 00:46:44;;;;;;;0.82;0.63;;;;;;;;;;5126747;28;20348;-40
2023/03/14 00:49:10;;;;;;;0.55;0.50;;;;;;;;;;5125578;27;20031;-40
2023/03/14 00:51:37;;;;;;;0.75;0.45;;;;;;;;;;5125849;28;20039;-40
2023/03/14 00:54:03;;;;;;;0.63;0.55;;;;;;;;;;5125563;27;20546;-40
2023/03/14 00:56:29;;;;;;;0.40;0.38;;;;;;;;;;5126258;27;20031;-40
2023/03/14 00:58:56;;;;;;;0.50;0.50;;;;;;;;;;5125582;28;20514;-41
2023/03/14 01:01:22;;;;;;;0.50;0.50;;;;;;;;;;5125613;27;20110;-40
2023/03/14 01:03:51;;;;;;;0.40;0.40;;;;;;;;;;5125058;27;20091;-40
2023/03/14 06:12:26;;;;;;;1.85;0.57;;;;;;;;;;5125283;27;20084;-40
2023/03/14 06:14:52;;;;;;;0.88;0.60;;;;;;;;;;5131210;27;20035;-40
2023/03/14 06:17:18;;;;;;;2.30;0.47;;;;;;;;;;5131348;27;20044;-40
2023/03/14 06:19:44;;;;;;;1.25;0.70;;;;;;;;;;5114643;27;20039;-40
2023/03/14 06:22:10;;;;;;;1.60;0.50;;;;;;;;;;5103544;28;20498;-40
2023/03/14 06:24:36;;;;;;;0.60;0.60;;;;;;;;;;5110618;28;20114;-40
2023/03/14 06:27:02;;;;;;;1.60;0.60;;;;;;;;;;5131535;27;20465;-40
2023/03/14 06:29:29;;;;;;;1.23;0.38;;;;;;;;;;5131144;27;20027;-40
2023/03/14 06:31:55;;;;;;;2.17;0.57;;;;;;;;;;5127979;27;20032;-40
2023/03/14 06:34:21;;;;;;;2.25;0.60;;;;;;;;;;5103839;28;20383;-40
2023/03/14 06:36:47;;;;;;;2.67;0.85;;;;;;;;;;5094230;28;20123;-40
2023/03/14 06:39:13;;;;;;;1.77;0.90;;;;;;;;;;5090205;28;20028;-40
2023/03/14 06:41:39;;;;;;;1.58;0.80;;;;;;;;;;5089827;28;20546;-40
2023/03/14 06:44:05;;;;;;;3.25;0.70;;;;;;;;;;5089858;28;20387;-40
2023/03/14 06:46:31;;;;;;;1.38;0.40;;;;;;;;;;5090984;28;20140;-40
2023/03/14 06:48:58;;;;;;;0.50;0.50;;;;;;;;;;5089913;28;20028;-40
2023/03/14 06:51:24;;;;;;;1.42;0.63;;;;;;;;;;5089812;28;20020;-40
2023/03/14 06:53:50;;;;;;;2.13;0.75;;;;;;;;;;5089863;28;20035;-40
2023/03/14 06:56:16;;;;;;;1.52;0.60;;;;;;;;;;5095523;28;20028;-39
2023/03/14 06:58:42;;;;;;;1.75;0.50;;;;;;;;;;5107677;28;20095;-40
2023/03/14 07:01:17;;;;;;;2.67;0.60;;;;;;;;;;5091140;28;20560;-40
2023/03/14 07:03:43;;;;;;;1.55;0.75;;;;;;;;;;5100835;28;20038;-40
2023/03/14 07:06:10;;;;;;;3.35;0.90;;;;;;;;;;5109939;28;20032;-41
2023/03/14 07:08:35;;;;;;;1.92;0.70;;;;;;;;;;5107336;28;20032;-40
2023/03/14 07:11:01;;;;;;;2.72;1.00;;;;;;;;;;5111908;27;20038;-44
2023/03/14 07:13:28;;;;;;;1.77;0.73;;;;;;;;;;5128708;27;20123;-43
2023/03/14 07:15:54;;;;;;;1.25;0.70;;;;;;;;;;5129010;27;20031;-42
2023/03/14 07:18:20;;;;;;;1.52;0.70;;;;;;;;;;5128786;27;20027;-43
2023/03/14 07:20:46;;;;;;;0.85;0.52;;;;;;;;;;5128278;27;20031;-44
2023/03/14 07:23:12;;;;;;;1.70;0.70;;;;;;;;;;5127243;27;20060;-44
2023/03/14 07:25:38;;;;;;;1.10;0.60;;;;;;;;;;5128230;27;20031;-43
2023/03/14 07:28:04;;;;;;;4.00;0.85;;;;;;;;;;5128541;27;20058;-44
2023/03/14 07:30:30;;;;;;;1.83;0.57;;;;;;;;;;5128298;27;20027;-43
2023/03/14 07:32:57;;;;;;;3.38;1.13;;;;;;;;;;5128745;27;20023;-43
2023/03/14 07:35:24;;;;;;;0.95;0.70;;;;;;;;;;5122965;27;20521;-45
2023/03/14 07:37:50;;;;;;;1.73;0.60;;;;;;;;;;5122164;27;20051;-43
2023/03/14 07:40:16;;;;;;;1.63;0.70;;;;;;;;;;5141491;27;20564;-43
2023/03/14 07:42:43;;;;;;;1.70;0.73;;;;;;;;;;5130948;27;20035;-43
2023/03/14 07:45:10;;;;;;;4.13;0.63;;;;;;;;;;5128686;27;20022;-43
2023/03/14 07:47:36;;;;;;;1.42;0.77;;;;;;;;;;5128511;27;20023;-43
2023/03/14 07:50:02;;;;;;;0.75;0.60;;;;;;;;;;5129310;27;20030;-44
2023/03/14 07:52:29;;;;;;;0.88;0.60;;;;;;;;;;5127066;27;20081;-43
2023/03/14 07:54:55;;;;;;;2.70;0.77;;;;;;;;;;5127836;27;20051;-44
2023/03/14 07:57:22;;;;;;;2.10;0.70;;;;;;;;;;5128114;27;20047;-43
2023/03/14 07:59:48;;;;;;;2.90;0.75;;;;;;;;;;5127746;27;20147;-43
2023/03/14 08:02:14;;;;;;;2.22;0.90;;;;;;;;;;5128183;27;20067;-41
2023/03/14 08:04:41;;;;;;;2.83;0.70;;;;;;;;;;5127932;27;20034;-43
2023/03/14 08:07:08;;;;;;;2.35;0.77;;;;;;;;;;5126312;27;20590;-42
2023/03/14 08:09:34;;;;;;;0.98;0.60;;;;;;;;;;5127103;27;20438;-42
2023/03/14 08:12:00;;;;;;;0.90;0.68;;;;;;;;;;5123924;27;20027;-42
2023/03/14 08:14:26;;;;;;;1.33;0.70;;;;;;;;;;5127337;27;20027;-43
2023/03/14 08:16:52;;;;;;;1.65;0.80;;;;;;;;;;5125510;28;20043;-41
2023/03/14 08:19:18;;;;;;;3.03;1.00;;;;;;;;;;5127763;27;20510;-43
2023/03/14 08:21:44;;;;;;;1.52;0.80;;;;;;;;;;5127197;28;20090;-43
2023/03/14 08:24:10;;;;;;;4.30;1.42;;;;;;;;;;5127312;28;20023;-42
2023/03/14 08:26:36;;;;;;;3.17;1.33;;;;;;;;;;5108490;28;20019;-43
2023/03/14 08:29:04;;;;;;;1.60;0.85;;;;;;;;;;5127047;27;20180;-42
2023/03/14 08:31:30;;;;;;;2.83;1.00;;;;;;;;;;5129497;27;20016;-42
2023/03/14 08:33:59;;;;;;;3.55;0.88;;;;;;;;;;5131427;27;20027;-44
2023/03/14 08:36:25;;;;;;;1.95;0.70;;;;;;;;;;5131868;27;20030;-42
2023/03/14 08:38:51;;;;;;;2.10;0.70;;;;;;;;;;5131204;27;20086;-42
2023/03/14 08:41:17;;;;;;;2.28;0.85;;;;;;;;;;5131354;27;20127;-43
2023/03/14 08:43:43;;;;;;;2.88;0.70;;;;;;;;;;5132225;27;20071;-42
2023/03/14 08:46:09;;;;;;;2.97;1.10;;;;;;;;;;5131143;27;20019;-42
2023/03/14 08:48:35;;;;;;;0.60;0.55;;;;;;;;;;5130722;27;20027;-41
2023/03/14 08:51:12;;;;;;;1.20;0.70;;;;;;;;;;5130956;27;20106;-42
2023/03/14 08:53:38;;;;;;;1.50;0.77;;;;;;;;;;5131297;27;20027;-42
2023/03/14 08:56:05;;;;;;;0.75;0.57;;;;;;;;;;5130545;27;20023;-43
2023/03/14 08:58:32;;;;;;;1.58;0.70;;;;;;;;;;5129874;27;20046;-42
2023/03/14 09:00:58;;;;;;;2.15;0.55;;;;;;;;;;5131081;27;20028;-41
2023/03/14 09:03:25;;;;;;;3.85;0.80;;;;;;;;;;5131232;27;20045;-43
2023/03/14 09:05:51;;;;;;;3.17;0.80;;;;;;;;;;5131031;27;20072;-42
2023/03/14 09:08:17;;;;;;;1.25;0.90;;;;;;;;;;5131239;27;20035;-42
2023/03/14 09:10:43;;;;;;;2.80;1.00;;;;;;;;;;5130891;27;20054;-43
2023/03/14 09:13:09;;;;;;;1.92;0.98;;;;;;;;;;5130664;27;20495;-42
2023/03/14 09:15:36;;;;;;;1.50;0.70;;;;;;;;;;5129906;27;20060;-43
2023/03/14 09:18:03;;;;;;;2.05;1.35;;;;;;;;;;5130632;27;20133;-42
2023/03/14 09:20:29;;;;;;;2.05;0.60;;;;;;;;;;5129080;27;20023;-42
2023/03/14 09:22:55;;;;;;;1.25;0.77;;;;;;;;;;5130015;27;20561;-42
2023/03/14 09:25:21;;;;;;;1.25;0.80;;;;;;;;;;5129484;27;20102;-43
2023/03/14 09:27:47;;;;;;;1.90;0.82;;;;;;;;;;5129000;27;20046;-43
2023/03/14 09:30:13;;;;;;;0.95;0.80;;;;;;;;;;5128872;27;20518;-43
2023/03/14 09:32:40;;;;;;;1.75;0.70;;;;;;;;;;5129065;27;20037;-43
2023/03/14 09:35:06;;;;;;;3.47;0.80;;;;;;;;;;5128883;27;20094;-42
2023/03/14 09:37:33;;;;;;;6.72;1.30;;;;;;;;;;5128745;27;20449;-42
2023/03/14 09:39:59;;;;;;;7.25;1.17;;;;;;;;;;5128823;27;20102;-43
2023/03/14 09:42:27;;;;;;;3.58;1.00;;;;;;;;;;5128685;27;20079;-42
2023/03/14 09:44:57;;;;;;;2.45;1.20;;;;;;;;;;5127916;27;20110;-42
2023/03/14 09:47:24;;;;;;;6.80;1.17;;;;;;;;;;5128676;27;20069;-42
2023/03/14 09:49:51;;;;;;;8.15;1.38;;;;;;;;;;5128575;27;20657;-41
2023/03/14 09:52:21;;;;;;;4.80;1.15;;;;;;;;;;5128560;27;20035;-41
2023/03/14 09:55:21;;;;;;;6.15;1.30;;;;;;;;;;5128570;27;20505;-42
2023/03/14 09:57:50;;;;;;;6.47;1.30;;;;;;;;;;5081884;27;20661;-42
2023/03/14 10:00:18;;;;;;;7.00;1.25;;;;;;;;;;5128009;27;20024;-42
2023/03/14 10:02:47;;;;;;;4.78;1.20;;;;;;;;;;5128222;27;20034;-42
2023/03/14 10:05:21;;;;;;;4.85;1.10;;;;;;;;;;5128609;27;20031;-42
2023/03/14 10:07:47;;;;;;;1.50;0.70;;;;;;;;;;5127478;27;20476;-41
2023/03/14 10:10:17;;;;;;;1.15;0.60;;;;;;;;;;5115899;27;20077;-41
2023/03/14 10:12:46;;;;;;;2.78;0.40;;;;;;;;;;5125208;27;20048;-41
2023/03/14 10:15:14;;;;;;;0.63;0.50;;;;;;;;;;5113752;27;20015;-41
2023/03/14 10:17:47;;;;;;;1.33;0.80;;;;;;;;;;5128943;27;20019;-42
2023/03/14 10:20:33;;;;;;;2.83;1.50;;;;;;;;;;5128216;27;20030;-41
2023/03/14 10:23:07;;;;;;;1.70;1.00;;;;;;;;;;5127910;27;20038;-41
2023/03/14 10:25:33;;;;;;;;;;;;;;;;;;5129453;27;20027;-41
2023/03/14 10:27:59;;;;;;;2.40;1.15;;;;;;;;;;5127689;27;20331;-42
2023/03/14 10:30:28;;;;;;;1.95;1.40;;;;;;;;;;5127794;27;20054;-43
2023/03/14 10:32:55;;;;;;;1.92;1.60;;;;;;;;;;5127661;27;20028;-42
2023/03/14 10:35:22;;;;;;;4.00;2.20;;;;;;;;;;5127947;27;20031;-41
2023/03/14 10:37:50;;;;;;;2.97;1.70;;;;;;;;;;5128109;27;20019;-42
2023/03/14 10:40:26;;;;;;;2.70;2.25;;;;;;;;;;5127768;27;20025;-43
2023/03/14 10:42:55;;;;;;;3.58;2.20;;;;;;;;;;5127677;27;20064;-42
2023/03/14 10:45:33;;;;;;;3.33;2.10;;;;;;;;;;5126999;27;20510;-42
2023/03/14 10:48:00;;;;;;;2.00;1.77;;;;;;;;;;5127419;27;20028;-42
2023/03/14 10:50:31;;;;;;;1.50;1.20;;;;;;;;;;5127527;27;20106;-42
2023/03/14 10:52:58;;;;;;;1.38;1.23;;;;;;;;;;5127415;27;20153;-42
2023/03/14 10:55:26;;;;;;;1.55;1.17;;;;;;;;;;5126742;27;20023;-42
2023/03/14 10:57:52;;;;;;;1.30;1.00;;;;;;;;;;5126036;27;20019;-41
2023/03/14 11:00:22;;;;;;;1.48;1.10;;;;;;;;;;5127172;27;20106;-41
2023/03/14 11:02:51;;;;;;;1.27;0.82;;;;;;;;;;5127145;27;20027;-41
2023/03/14 11:05:27;;;;;;;0.98;0.88;;;;;;;;;;5127102;27;20027;-42
2023/03/14 11:07:57;;;;;;;0.82;0.70;;;;;;;;;;5127408;27;20058;-42
2023/03/14 11:10:37;;;;;;;1.40;0.75;;;;;;;;;;5127467;27;20038;-42
2023/03/14 11:13:06;;;;;;;0.95;0.50;;;;;;;;;;5126765;27;20038;-42
2023/03/14 11:15:43;;;;;;;0.50;0.50;;;;;;;;;;5127135;27;20498;-42
2023/03/14 11:18:15;;;;;;;0.93;0.77;;;;;;;;;;5127073;27;20141;-42
2023/03/14 11:20:47;;;;;;;0.50;0.50;;;;;;;;;;5127133;27;20497;-42
2023/03/14 11:23:24;;;;;;;0.45;0.45;;;;;;;;;;5125504;27;20062;-41
2023/03/14 11:26:10;;;;;;;0.30;0.30;;;;;;;;;;5126873;27;20035;-42
2023/03/14 11:28:43;;;;;;;0.40;0.40;;;;;;;;;;5093978;27;20066;-42
2023/03/14 11:31:17;;;;;;;0.53;0.53;;;;;;;;;;5125280;27;20031;-42
2023/03/14 11:33:45;;;;;;;0.40;0.40;;;;;;;;;;5134778;27;20110;-41
2023/03/14 11:36:13;;;;;;;0.35;0.35;;;;;;;;;;5127487;27;20102;-42
2023/03/14 11:38:44;;;;;;;0.35;0.35;;;;;;;;;;5127898;27;20023;-41
2023/03/14 11:41:12;;;;;;;0.45;0.30;;;;;;;;;;5127651;27;20046;-43
2023/03/14 11:43:42;;;;;;;1.13;0.30;;;;;;;;;;5127601;27;20070;-42
2023/03/14 11:46:17;;;;;;;0.30;0.30;;;;;;;;;;5128616;27;20158;-41
2023/03/14 11:48:46;;;;;;;1.25;0.40;;;;;;;;;;5127981;27;20110;-42
2023/03/14 11:51:24;;;;;;;1.33;0.40;;;;;;;;;;5127824;27;20031;-42
2023/03/14 11:53:53;;;;;;;0.40;0.32;;;;;;;;;;5128183;27;20037;-42
2023/03/14 11:56:33;;;;;;;0.70;0.40;;;;;;;;;;5127569;27;20027;-41
2023/03/14 11:59:05;;;;;;;0.35;0.30;;;;;;;;;;5125982;27;20038;-43
2023/03/14 12:01:36;;;;;;;0.77;0.55;;;;;;;;;;5126559;27;20099;-41
2023/03/14 12:04:10;;;;;;;0.75;0.40;;;;;;;;;;5126494;27;20031;-42
2023/03/14 12:06:37;;;;;;;;;;;;;;;;;;5125809;27;20030;-42
2023/03/14 12:09:04;;;;;;;0.93;0.40;;;;;;;;;;5126789;27;19908;-42
2023/03/14 12:11:44;;;;;;;2.03;0.50;;;;;;;;;;5115764;27;20039;-41
2023/03/14 12:14:19;;;;;;;0.45;0.40;;;;;;;;;;5105601;28;20035;-42
2023/03/14 12:16:47;;;;;;;1.05;0.50;;;;;;;;;;5105601;28;20663;-42
2023/03/14 12:19:19;;;;;;;0.40;0.40;;;;;;;;;;5105732;28;20027;-42
2023/03/14 12:22:12;;;;;;;0.47;0.45;;;;;;;;;;5105470;28;20502;-42
2023/03/14 12:24:45;;;;;;;0.52;0.38;;;;;;;;;;5100836;28;20039;-41
2023/03/14 12:27:14;;;;;;;0.68;0.20;;;;;;;;;;5105578;28;20031;-42
2023/03/14 12:29:59;;;;;;;0.73;0.30;;;;;;;;;;5086925;28;20451;-42
2023/03/14 12:32:25;;;;;;;1.58;0.40;;;;;;;;;;5105293;28;20034;-42
2023/03/14 12:34:52;;;;;;;0.57;0.30;;;;;;;;;;5105949;28;20029;-42
2023/03/14 12:37:23;;;;;;;0.47;0.30;;;;;;;;;;5105563;28;20019;-42
2023/03/14 12:40:02;;;;;;;0.38;0.30;;;;;;;;;;5105322;28;20019;-41
2023/03/14 12:42:40;;;;;;;0.40;0.32;;;;;;;;;;5105155;28;20035;-41
2023/03/14 12:45:26;;;;;;;0.40;0.40;;;;;;;;;;5105374;28;20023;-41
2023/03/14 12:48:10;;;;;;;0.30;0.30;;;;;;;;;;5106062;28;20110;-41
2023/03/14 12:50:55;;;;;;;0.57;0.47;;;;;;;;;;5105508;28;20502;-41
2023/03/14 12:53:35;;;;;;;0.57;0.38;;;;;;;;;;5105959;28;20080;-41
2023/03/14 12:56:20;;;;;;;0.52;0.30;;;;;;;;;;5105296;28;20125;-41
2023/03/14 12:58:46;;;;;;;;;;;;;;;;;;5105402;28;20016;-41
2023/03/14 13:01:16;;;;;;;0.93;0.50;;;;;;;;;;5112978;28;19908;-41
2023/03/14 13:03:45;;;;;;;0.40;0.40;;;;;;;;;;5124737;28;20513;-42
2023/03/14 13:06:12;;;;;;;0.35;0.35;;;;;;;;;;5125267;28;20082;-42
2023/03/14 13:08:47;;;;;;;0.40;0.40;;;;;;;;;;5122131;28;20046;-41
2023/03/14 13:11:16;;;;;;;0.63;0.63;;;;;;;;;;5125826;28;20444;-41
2023/03/14 13:13:45;;;;;;;0.57;0.50;;;;;;;;;;5117528;28;20066;-42
2023/03/14 13:16:15;;;;;;;0.63;0.40;;;;;;;;;;5106628;28;20031;-42
2023/03/14 13:18:46;;;;;;;0.40;0.40;;;;;;;;;;5109291;28;20057;-41
2023/03/14 13:21:14;;;;;;;1.02;0.60;;;;;;;;;;5110410;28;20019;-41
2023/03/14 13:23:40;;;;;;;0.30;0.30;;;;;;;;;;5110517;28;20039;-43
2023/03/14 13:26:10;;;;;;;0.57;0.50;;;;;;;;;;5110177;27;20023;-41
2023/03/14 13:28:36;;;;;;;0.52;0.35;;;;;;;;;;5107146;28;20099;-42
2023/03/14 13:31:04;;;;;;;1.05;0.60;;;;;;;;;;5108007;28;20550;-43
2023/03/14 13:33:30;;;;;;;0.60;0.60;;;;;;;;;;5098694;28;20169;-44
2023/03/14 13:36:02;;;;;;;0.40;0.40;;;;;;;;;;5109157;28;20020;-43
2023/03/14 13:38:29;;;;;;;2.22;0.60;;;;;;;;;;5103642;28;20027;-42
2023/03/14 13:40:59;;;;;;;0.50;0.50;;;;;;;;;;5106784;28;20035;-43
2023/03/14 13:43:33;;;;;;;1.30;0.70;;;;;;;;;;5105676;28;20407;-43
2023/03/14 13:46:16;;;;;;;2.00;0.80;;;;;;;;;;5106913;28;20448;-43
2023/03/14 13:49:01;;;;;;;1.85;0.88;;;;;;;;;;5107214;28;20035;-42
2023/03/14 13:51:31;;;;;;;1.83;0.90;;;;;;;;;;5103158;28;20548;-43
2023/03/14 13:53:58;;;;;;;3.25;1.38;;;;;;;;;;5096462;28;20120;-43
2023/03/14 13:56:29;;;;;;;1.63;0.85;;;;;;;;;;5095511;28;20446;-42
2023/03/14 13:58:55;;;;;;;2.75;1.00;;;;;;;;;;5092887;28;20028;-42
2023/03/14 14:01:25;;;;;;;1.85;1.00;;;;;;;;;;5107277;28;20026;-43
2023/03/14 14:03:52;;;;;;;2.17;1.00;;;;;;;;;;5100217;28;20030;-43
2023/03/14 14:06:21;;;;;;;1.08;0.70;;;;;;;;;;5102736;27;20403;-42
2023/03/14 14:08:47;;;;;;;1.35;0.50;;;;;;;;;;5100024;28;20305;-44
2023/03/14 14:11:19;;;;;;;0.60;0.60;;;;;;;;;;5093516;27;20032;-42
2023/03/14 14:13:45;;;;;;;1.92;0.68;;;;;;;;;;5116077;27;20042;-42
2023/03/14 14:16:12;;;;;;;1.02;0.50;;;;;;;;;;5127056;27;20494;-42
2023/03/14 14:18:38;;;;;;;0.68;0.50;;;;;;;;;;5127219;27;20032;-42
2023/03/14 14:21:04;;;;;;;1.73;0.60;;;;;;;;;;5125060;27;20023;-43
2023/03/14 14:23:31;;;;;;;0.82;0.32;;;;;;;;;;5127081;27;20038;-43
2023/03/14 14:25:58;;;;;;;1.30;0.45;;;;;;;;;;5127044;27;20050;-43
2023/03/14 14:28:23;;;;;;;1.55;0.50;;;;;;;;;;5127434;27;20031;-43
2023/03/14 14:31:20;;;;;;;0.68;0.43;;;;;;;;;;5126757;27;20031;-43
2023/03/14 14:33:46;;;;;;;1.10;0.40;;;;;;;;;;5113976;27;20047;-43
2023/03/14 14:36:24;;;;;;;0.88;0.40;;;;;;;;;;5125980;27;20023;-43
2023/03/14 14:38:55;;;;;;;0.85;0.50;;;;;;;;;;5126464;27;20031;-42
2023/03/14 14:41:21;;;;;;;1.55;0.40;;;;;;;;;;5126636;27;20023;-43
2023/03/14 14:43:47;;;;;;;1.40;0.57;;;;;;;;;;5125597;27;20492;-42
2023/03/14 14:46:17;;;;;;;0.30;0.30;;;;;;;;;;5126794;27;20050;-43
2023/03/14 14:48:43;;;;;;;0.88;0.40;;;;;;;;;;5126730;27;20029;-43
2023/03/14 14:51:10;;;;;;;0.57;0.47;;;;;;;;;;5126265;27;20102;-43
2023/03/14 14:53:36;;;;;;;1.75;0.70;;;;;;;;;;5126316;27;20031;-43
2023/03/14 14:56:16;;;;;;;2.58;0.70;;;;;;;;;;5126017;27;20525;-43
2023/03/14 14:58:44;;;;;;;3.00;0.70;;;;;;;;;;5126772;27;20034;-43
2023/03/14 15:01:17;;;;;;;1.75;0.65;;;;;;;;;;5124590;27;20355;-43
2023/03/14 15:03:44;;;;;;;2.38;0.80;;;;;;;;;;5126960;27;20506;-44
2023/03/14 15:06:12;;;;;;;0.57;0.38;;;;;;;;;;5126726;27;20614;-43
2023/03/14 15:08:38;;;;;;;1.17;0.57;;;;;;;;;;5126583;27;20031;-43
2023/03/14 15:11:04;;;;;;;1.27;0.50;;;;;;;;;;5125812;27;20028;-43
2023/03/14 15:13:31;;;;;;;0.95;0.50;;;;;;;;;;5126563;27;20031;-44
2023/03/14 15:15:57;;;;;;;1.85;0.70;;;;;;;;;;5127205;27;20103;-45
2023/03/14 15:18:25;;;;;;;1.88;0.75;;;;;;;;;;5127318;27;20429;-44
2023/03/14 15:20:52;;;;;;;4.20;0.80;;;;;;;;;;5127315;27;20023;-44
2023/03/14 15:23:22;;;;;;;2.13;0.80;;;;;;;;;;5126742;27;20057;-45
2023/03/14 15:25:49;;;;;;;4.85;0.93;;;;;;;;;;5127022;27;20024;-45
2023/03/14 15:28:22;;;;;;;2.83;0.90;;;;;;;;;;5126863;27;20098;-44
2023/03/14 15:30:49;;;;;;;2.90;0.80;;;;;;;;;;5126736;27;20154;-44
2023/03/14 15:33:15;;;;;;;3.28;0.90;;;;;;;;;;5126517;27;20023;-44
2023/03/14 15:35:42;;;;;;;4.25;0.80;;;;;;;;;;5126447;27;20031;-45
2023/03/14 15:38:16;;;;;;;2.08;0.82;;;;;;;;;;5126465;27;20015;-45
2023/03/14 15:40:42;;;;;;;2.10;0.47;;;;;;;;;;5126011;27;20027;-44
2023/03/14 15:43:08;;;;;;;1.20;0.70;;;;;;;;;;5126793;27;20606;-44
2023/03/14 15:45:35;;;;;;;1.98;0.68;;;;;;;;;;5127049;27;20045;-44
2023/03/14 15:48:01;;;;;;;1.08;0.50;;;;;;;;;;5126428;27;20414;-44
2023/03/14 15:50:27;;;;;;;1.90;0.50;;;;;;;;;;5126469;27;20410;-43
2023/03/14 15:52:53;;;;;;;2.45;0.90;;;;;;;;;;5126938;27;20690;-44
2023/03/14 15:55:20;;;;;;;2.88;0.70;;;;;;;;;;5126486;27;20417;-44
2023/03/14 15:57:46;;;;;;;1.60;0.63;;;;;;;;;;5126617;27;20559;-44
2023/03/14 16:00:14;;;;;;;1.00;0.65;;;;;;;;;;5125098;27;20042;-44
2023/03/14 16:02:41;;;;;;;1.80;0.80;;;;;;;;;;5125973;27;20022;-45
2023/03/14 16:05:07;;;;;;;2.72;0.85;;;;;;;;;;5125955;27;20031;-45
2023/03/14 16:07:33;;;;;;;1.35;0.60;;;;;;;;;;5125639;27;20123;-44
2023/03/14 16:09:59;;;;;;;1.52;0.50;;;;;;;;;;5126293;27;20130;-44
2023/03/14 16:12:26;;;;;;;1.48;0.50;;;;;;;;;;5126614;27;20040;-45
2023/03/14 16:14:52;;;;;;;0.57;0.35;;;;;;;;;;5126815;27;20023;-44
2023/03/14 16:17:18;;;;;;;1.48;0.40;;;;;;;;;;5125894;27;20444;-44
2023/03/14 16:19:44;;;;;;;2.28;0.52;;;;;;;;;;5125983;28;20027;-44
2023/03/14 16:22:10;;;;;;;0.60;0.45;;;;;;;;;;5126149;28;20044;-45
2023/03/14 16:24:36;;;;;;;3.08;0.70;;;;;;;;;;5126229;28;20034;-44
2023/03/14 16:27:02;;;;;;;0.77;0.40;;;;;;;;;;5126097;28;20024;-46
2023/03/14 16:29:29;;;;;;;3.03;0.60;;;;;;;;;;5125811;28;20136;-45
2023/03/14 16:31:55;;;;;;;2.03;0.80;;;;;;;;;;5126592;28;20023;-44
2023/03/14 16:34:21;;;;;;;2.25;0.70;;;;;;;;;;5125808;28;20533;-46
2023/03/14 16:36:50;;;;;;;2.85;1.00;;;;;;;;;;5126105;28;20535;-45
2023/03/14 16:39:16;;;;;;;1.77;0.60;;;;;;;;;;5125790;27;20023;-45
2023/03/14 16:41:42;;;;;;;2.55;0.80;;;;;;;;;;5125934;28;20485;-45
2023/03/14 16:44:08;;;;;;;1.35;0.77;;;;;;;;;;5125860;28;20118;-46
2023/03/14 16:46:36;;;;;;;0.82;0.50;;;;;;;;;;5125949;28;20055;-45
2023/03/14 16:49:04;;;;;;;1.70;0.70;;;;;;;;;;5126065;28;20121;-44
2023/03/14 16:51:30;;;;;;;2.70;0.90;;;;;;;;;;5125773;27;20101;-45
2023/03/14 16:53:56;;;;;;;1.77;0.70;;;;;;;;;;5129181;27;20035;-44
2023/03/14 16:56:22;;;;;;;1.48;0.80;;;;;;;;;;5130592;27;20031;-45
2023/03/14 16:58:50;;;;;;;3.30;1.13;;;;;;;;;;5129632;27;20030;-45
2023/03/14 17:01:17;;;;;;;2.40;0.95;;;;;;;;;;5129499;27;20030;-45
2023/03/14 17:03:50;;;;;;;1.63;0.98;;;;;;;;;;5129703;27;20160;-45
2023/03/14 17:06:18;;;;;;;3.33;0.90;;;;;;;;;;5129892;27;20572;-45
2023/03/14 17:08:44;;;;;;;2.50;0.93;;;;;;;;;;5129258;27;20023;-46
2023/03/14 17:11:11;;;;;;;1.50;0.65;;;;;;;;;;5129282;27;20031;-46
2023/03/14 17:13:37;;;;;;;1.35;0.73;;;;;;;;;;5129287;27;20038;-46
2023/03/14 17:16:03;;;;;;;1.67;0.65;;;;;;;;;;5129795;27;20030;-46
2023/03/14 17:18:30;;;;;;;1.35;0.70;;;;;;;;;;5129395;27;20411;-44
2023/03/14 17:20:56;;;;;;;1.63;0.85;;;;;;;;;;5129967;27;20023;-45
2023/03/14 17:23:24;;;;;;;2.33;1.05;;;;;;;;;;5129682;27;20288;-45
2023/03/14 17:25:50;;;;;;;1.65;0.75;;;;;;;;;;5129395;27;20034;-46
2023/03/14 17:28:18;;;;;;;1.75;0.88;;;;;;;;;;5129047;27;20126;-45
2023/03/14 17:30:44;;;;;;;1.77;0.80;;;;;;;;;;5129044;27;20108;-44
2023/03/14 17:33:11;;;;;;;4.53;0.98;;;;;;;;;;5128011;27;20027;-46
2023/03/14 17:35:37;;;;;;;2.00;1.25;;;;;;;;;;5129094;27;20122;-46
2023/03/14 17:38:04;;;;;;;2.85;0.88;;;;;;;;;;5128902;27;20533;-46
2023/03/14 17:40:30;;;;;;;1.33;0.60;;;;;;;;;;5129143;27;20040;-45
2023/03/14 17:42:56;;;;;;;5.57;1.10;;;;;;;;;;5128338;27;20834;-43
2023/03/14 17:45:23;;;;;;;3.00;1.20;;;;;;;;;;5129590;27;20023;-44
2023/03/14 17:47:49;;;;;;;3.40;1.50;;;;;;;;;;5128681;27;20432;-45
2023/03/14 17:50:15;;;;;;;3.13;2.08;;;;;;;;;;5128650;27;20029;-45
2023/03/14 17:52:41;;;;;;;4.15;1.67;;;;;;;;;;5128324;27;20035;-45
2023/03/14 17:55:07;;;;;;;3.70;1.92;;;;;;;;;;5128928;27;20023;-45
2023/03/14 17:57:39;;;;;;;3.28;1.65;;;;;;;;;;5128501;27;20058;-44
2023/03/14 18:00:10;;;;;;;6.10;1.70;;;;;;;;;;5128825;27;20031;-46
2023/03/14 18:02:36;;;;;;;3.65;1.30;;;;;;;;;;5128240;27;20030;-45
2023/03/14 18:05:02;;;;;;;2.25;1.02;;;;;;;;;;5127856;27;20037;-44
2023/03/14 18:07:28;;;;;;;2.15;1.25;;;;;;;;;;5128346;27;20053;-45
2023/03/14 18:09:54;;;;;;;1.60;1.00;;;;;;;;;;5129054;27;20379;-47
2023/03/14 18:12:21;;;;;;;3.95;1.30;;;;;;;;;;5128104;27;20129;-44
2023/03/14 18:14:47;;;;;;;1.98;1.40;;;;;;;;;;5128364;27;20509;-45
2023/03/14 18:17:14;;;;;;;2.85;1.30;;;;;;;;;;5127477;27;20023;-46
2023/03/14 18:19:40;;;;;;;2.22;1.48;;;;;;;;;;5127900;27;20490;-45
2023/03/14 18:22:06;;;;;;;1.90;1.25;;;;;;;;;;5127865;27;20102;-45
2023/03/14 18:24:32;;;;;;;2.28;1.30;;;;;;;;;;5127937;27;20029;-45
2023/03/14 18:26:58;;;;;;;2.42;1.20;;;;;;;;;;5126987;27;20024;-45
2023/03/14 18:29:25;;;;;;;2.75;1.58;;;;;;;;;;5127442;27;20019;-44
2023/03/14 18:31:52;;;;;;;2.47;1.45;;;;;;;;;;5126820;27;20107;-45
2023/03/14 18:34:18;;;;;;;2.40;1.23;;;;;;;;;;5127801;27;20054;-44
2023/03/14 18:36:44;;;;;;;2.22;1.30;;;;;;;;;;5129457;27;20109;-45
2023/03/14 18:39:10;;;;;;;3.65;1.75;;;;;;;;;;5128346;27;20027;-46
2023/03/14 18:41:36;;;;;;;2.58;1.63;;;;;;;;;;5122931;27;20681;-45
2023/03/14 18:44:03;;;;;;;3.03;2.17;;;;;;;;;;5128613;27;20027;-44
2023/03/14 18:46:29;;;;;;;3.42;2.25;;;;;;;;;;5129347;27;20442;-44
2023/03/14 18:48:55;;;;;;;2.28;1.50;;;;;;;;;;5129305;27;20050;-45
2023/03/14 18:51:22;;;;;;;2.95;1.70;;;;;;;;;;5128263;27;20160;-46
2023/03/14 18:53:48;;;;;;;2.90;1.70;;;;;;;;;;5127070;27;20054;-46
2023/03/14 18:56:14;;;;;;;2.70;1.70;;;;;;;;;;5128377;27;20023;-45
2023/03/14 18:58:41;;;;;;;3.05;1.60;;;;;;;;;;5127459;27;20432;-45
2023/03/14 19:01:07;;;;;;;3.00;1.80;;;;;;;;;;5128272;27;20168;-44
2023/03/14 19:03:36;;;;;;;6.45;2.85;;;;;;;;;;5127328;27;20067;-44
2023/03/14 19:06:03;;;;;;;4.30;3.03;;;;;;;;;;5127529;27;20383;-44
2023/03/14 19:08:29;;;;;;;4.82;3.22;;;;;;;;;;5126931;27;20644;-45
2023/03/14 19:10:59;;;;;;;5.22;3.42;;;;;;;;;;5127683;27;20039;-45
2023/03/14 19:13:26;;;;;;;4.35;3.00;;;;;;;;;;5126090;27;20402;-44
2023/03/14 19:15:52;;;;;;;5.43;3.50;;;;;;;;;;5124059;27;20656;-43
2023/03/14 19:18:18;;;;;;;6.43;3.80;;;;;;;;;;5126062;27;20023;-44
2023/03/14 19:20:54;;;;;;;7.82;4.50;;;;;;;;;;5126255;27;20038;-45
2023/03/14 19:23:23;;;;;;;7.60;4.75;;;;;;;;;;5126422;27;20059;-44
2023/03/14 19:25:50;;;;;;;8.93;5.15;;;;;;;;;;5125633;27;20015;-45
2023/03/14 19:28:16;;;;;;;8.40;5.00;;;;;;;;;;5126547;27;20031;-45
2023/03/14 19:30:42;;;;;;;9.52;5.53;;;;;;;;;;5125707;27;20489;-45
2023/03/14 19:33:09;;;;;;;11.57;6.43;;;;;;;;;;5126189;27;20063;-44
2023/03/14 19:35:35;;;;;;;10.02;6.82;;;;;;;;;;5126173;27;20536;-45
2023/03/14 19:38:01;;;;;;;10.25;6.20;;;;;;;;;;5126284;27;20574;-45
2023/03/14 19:40:27;;;;;;;10.45;5.57;;;;;;;;;;5125883;27;20038;-46
2023/03/14 19:42:53;;;;;;;7.65;4.60;;;;;;;;;;5124893;27;20027;-44
2023/03/14 19:45:20;;;;;;;7.32;4.97;;;;;;;;;;5125145;27;20031;-44
2023/03/14 19:47:46;;;;;;;4.90;3.70;;;;;;;;;;5108658;27;20058;-45
2023/03/14 19:50:12;;;;;;;6.25;3.95;;;;;;;;;;5126768;27;20517;-44
2023/03/14 19:52:42;;;;;;;4.10;3.15;;;;;;;;;;5126171;27;20027;-46
2023/03/14 19:55:08;;;;;;;5.20;3.80;;;;;;;;;;5125872;27;20055;-47